SDM601 UWKD-UWGG
Flight info
| Callsign | SDM601 |
|---|---|
| Flight time | 0h 41m |
| Altitude | 32000 |
| Route | APTAR1G APTAR L158 KOKAD N604 PESAB PESAB2P |
| Aircraft | A320/M-SDE3FGHIRWY/LB1 |
Departure
| Time | 2026-05-08 10:26 |
|---|---|
| Airport | Kazan International Airport (UWKD) |
Arrival
| Time | 2026-05-08 11:07 |
|---|---|
| Airport | Nizhny Novgorod / Strigino International Airport (UWGG) |
| Time | Latitude | Longitude | Altitude | Speed | Heading |
|---|---|---|---|---|---|
| 2026-05-08 09:57 | 55.60763 | 49.29826 | 416 ft | 0 kts | 34° |
| 2026-05-08 10:12 | 55.60750 | 49.29811 | 408 ft | 2 kts | 32° |
| 2026-05-08 10:13 | 55.60737 | 49.29795 | 413 ft | 2 kts | 31° |
| 2026-05-08 10:13 | 55.60722 | 49.29780 | 408 ft | 2 kts | 30° |
| 2026-05-08 10:13 | 55.60708 | 49.29766 | 411 ft | 2 kts | 27° |
| 2026-05-08 10:13 | 55.60693 | 49.29753 | 405 ft | 2 kts | 23° |
| 2026-05-08 10:14 | 55.60678 | 49.29742 | 409 ft | 2 kts | 17° |
| 2026-05-08 10:14 | 55.60662 | 49.29735 | 412 ft | 2 kts | 8° |
| 2026-05-08 10:14 | 55.60650 | 49.29733 | 409 ft | 1 kts | 34° |
| 2026-05-08 10:14 | 55.60650 | 49.29732 | 409 ft | 0 kts | 37° |
| 2026-05-08 10:18 | 55.60704 | 49.29743 | 408 ft | 12 kts | 333° |
| 2026-05-08 10:19 | 55.60749 | 49.29645 | 408 ft | 10 kts | 304° |
| 2026-05-08 10:19 | 55.60785 | 49.29553 | 414 ft | 9 kts | 305° |
| 2026-05-08 10:19 | 55.60813 | 49.29466 | 416 ft | 7 kts | 283° |
| 2026-05-08 10:20 | 55.60748 | 49.29347 | 416 ft | 8 kts | 214° |
| 2026-05-08 10:20 | 55.60695 | 49.29283 | 410 ft | 10 kts | 214° |
| 2026-05-08 10:20 | 55.60626 | 49.29199 | 413 ft | 13 kts | 216° |
| 2026-05-08 10:20 | 55.60576 | 49.29048 | 415 ft | 15 kts | 261° |
| 2026-05-08 10:21 | 55.60581 | 49.28859 | 416 ft | 16 kts | 274° |
| 2026-05-08 10:21 | 55.60592 | 49.28662 | 416 ft | 16 kts | 277° |
| 2026-05-08 10:21 | 55.60639 | 49.28490 | 412 ft | 15 kts | 304° |
| 2026-05-08 10:21 | 55.60698 | 49.28341 | 414 ft | 15 kts | 304° |
| 2026-05-08 10:22 | 55.60767 | 49.28162 | 409 ft | 19 kts | 305° |
| 2026-05-08 10:22 | 55.60842 | 49.27971 | 414 ft | 19 kts | 304° |
| 2026-05-08 10:22 | 55.60917 | 49.27778 | 415 ft | 19 kts | 304° |
| 2026-05-08 10:22 | 55.60992 | 49.27585 | 410 ft | 18 kts | 304° |
| 2026-05-08 10:23 | 55.61061 | 49.27404 | 414 ft | 17 kts | 304° |
| 2026-05-08 10:23 | 55.61126 | 49.27237 | 409 ft | 16 kts | 305° |
| 2026-05-08 10:23 | 55.61185 | 49.27087 | 409 ft | 14 kts | 304° |
| 2026-05-08 10:23 | 55.61212 | 49.26940 | 413 ft | 12 kts | 251° |
| 2026-05-08 10:24 | 55.61174 | 49.26872 | 415 ft | 0 kts | 214° |
| 2026-05-08 10:24 | 55.61125 | 49.26814 | 414 ft | 14 kts | 214° |
| 2026-05-08 10:24 | 55.61036 | 49.26813 | 410 ft | 12 kts | 130° |
| 2026-05-08 10:25 | 55.61025 | 49.26845 | 413 ft | 9 kts | 122° |
| 2026-05-08 10:25 | 55.60933 | 49.27086 | 413 ft | 63 kts | 125° |
| 2026-05-08 10:25 | 55.60541 | 49.28090 | 410 ft | 130 kts | 124° |
| 2026-05-08 10:25 | 55.59947 | 49.29634 | 716 ft | 157 kts | 128° |
| 2026-05-08 10:26 | 55.59351 | 49.31280 | 1380 ft | 158 kts | 130° |
| 2026-05-08 10:26 | 55.58730 | 49.32884 | 2178 ft | 159 kts | 134° |
| 2026-05-08 10:26 | 55.58054 | 49.34574 | 2638 ft | 180 kts | 132° |
| 2026-05-08 10:26 | 55.57110 | 49.36129 | 2991 ft | 193 kts | 161° |
| 2026-05-08 10:27 | 55.55761 | 49.36385 | 3321 ft | 205 kts | 200° |
| 2026-05-08 10:27 | 55.54572 | 49.34932 | 3762 ft | 221 kts | 239° |
| 2026-05-08 10:27 | 55.54175 | 49.32221 | 4267 ft | 243 kts | 271° |
| 2026-05-08 10:27 | 55.54351 | 49.29208 | 5064 ft | 253 kts | 278° |
| 2026-05-08 10:28 | 55.54674 | 49.26146 | 6039 ft | 256 kts | 279° |
| 2026-05-08 10:28 | 55.55036 | 49.23070 | 7055 ft | 256 kts | 280° |
| 2026-05-08 10:28 | 55.55398 | 49.19963 | 7975 ft | 261 kts | 280° |
| 2026-05-08 10:28 | 55.55751 | 49.16795 | 8892 ft | 265 kts | 279° |
| 2026-05-08 10:29 | 55.56093 | 49.13580 | 9814 ft | 268 kts | 279° |
| 2026-05-08 10:29 | 55.56436 | 49.10253 | 10346 ft | 286 kts | 279° |
| 2026-05-08 10:29 | 55.56799 | 49.06654 | 10714 ft | 307 kts | 279° |
| 2026-05-08 10:29 | 55.57172 | 49.02891 | 11419 ft | 314 kts | 279° |
| 2026-05-08 10:30 | 55.57547 | 48.99057 | 12212 ft | 319 kts | 279° |
| 2026-05-08 10:30 | 55.57925 | 48.95168 | 13017 ft | 323 kts | 279° |
| 2026-05-08 10:30 | 55.58355 | 48.91242 | 13815 ft | 327 kts | 281° |
| 2026-05-08 10:30 | 55.58845 | 48.87283 | 14520 ft | 331 kts | 282° |
| 2026-05-08 10:31 | 55.59362 | 48.83297 | 15228 ft | 335 kts | 282° |
| 2026-05-08 10:31 | 55.59887 | 48.79259 | 15925 ft | 339 kts | 282° |
| 2026-05-08 10:31 | 55.60413 | 48.75174 | 16606 ft | 343 kts | 282° |
| 2026-05-08 10:31 | 55.60938 | 48.71030 | 17287 ft | 347 kts | 282° |
| 2026-05-08 10:32 | 55.61461 | 48.66842 | 17969 ft | 351 kts | 282° |
| 2026-05-08 10:32 | 55.61986 | 48.62601 | 18571 ft | 355 kts | 282° |
| 2026-05-08 10:32 | 55.62513 | 48.58321 | 19191 ft | 358 kts | 281° |
| 2026-05-08 10:32 | 55.63043 | 48.53992 | 19686 ft | 362 kts | 281° |
| 2026-05-08 10:33 | 55.63574 | 48.49635 | 19820 ft | 362 kts | 281° |
| 2026-05-08 10:33 | 55.64106 | 48.45288 | 19840 ft | 361 kts | 281° |
| 2026-05-08 10:33 | 55.64637 | 48.40939 | 19848 ft | 362 kts | 281° |
| 2026-05-08 10:33 | 55.65167 | 48.36572 | 20100 ft | 365 kts | 281° |
| 2026-05-08 10:34 | 55.65699 | 48.32170 | 20771 ft | 367 kts | 281° |
| 2026-05-08 10:34 | 55.66234 | 48.27733 | 21390 ft | 370 kts | 281° |
| 2026-05-08 10:34 | 55.66772 | 48.23258 | 21984 ft | 373 kts | 281° |
| 2026-05-08 10:34 | 55.67312 | 48.18736 | 22590 ft | 377 kts | 281° |
| 2026-05-08 10:35 | 55.67856 | 48.14175 | 23160 ft | 380 kts | 281° |
| 2026-05-08 10:35 | 55.68401 | 48.09569 | 23687 ft | 383 kts | 281° |
| 2026-05-08 10:35 | 55.68949 | 48.04928 | 24161 ft | 386 kts | 281° |
| 2026-05-08 10:35 | 55.69495 | 48.00252 | 24631 ft | 389 kts | 281° |
| 2026-05-08 10:36 | 55.70044 | 47.95544 | 25084 ft | 392 kts | 281° |
| 2026-05-08 10:36 | 55.70601 | 47.90799 | 25541 ft | 394 kts | 281° |
| 2026-05-08 10:36 | 55.71162 | 47.86031 | 25988 ft | 396 kts | 281° |
| 2026-05-08 10:36 | 55.71724 | 47.81231 | 26414 ft | 399 kts | 281° |
| 2026-05-08 10:37 | 55.72287 | 47.76397 | 26836 ft | 401 kts | 281° |
| 2026-05-08 10:37 | 55.72848 | 47.71533 | 27253 ft | 404 kts | 281° |
| 2026-05-08 10:37 | 55.73409 | 47.66638 | 27664 ft | 406 kts | 281° |
| 2026-05-08 10:37 | 55.73969 | 47.61709 | 28067 ft | 409 kts | 281° |
| 2026-05-08 10:38 | 55.74534 | 47.56744 | 28466 ft | 411 kts | 281° |
| 2026-05-08 10:38 | 55.75102 | 47.51757 | 28847 ft | 414 kts | 281° |
| 2026-05-08 10:38 | 55.75673 | 47.46737 | 29213 ft | 416 kts | 281° |
| 2026-05-08 10:38 | 55.76246 | 47.41680 | 29558 ft | 419 kts | 281° |
| 2026-05-08 10:39 | 55.76818 | 47.36588 | 29900 ft | 422 kts | 281° |
| 2026-05-08 10:39 | 55.77388 | 47.31489 | 30190 ft | 424 kts | 281° |
| 2026-05-08 10:39 | 55.77961 | 47.26310 | 30585 ft | 424 kts | 281° |
| 2026-05-08 10:39 | 55.78530 | 47.21185 | 30940 ft | 424 kts | 281° |
| 2026-05-08 10:40 | 55.79101 | 47.16041 | 31233 ft | 425 kts | 281° |
| 2026-05-08 10:40 | 55.79672 | 47.10884 | 31504 ft | 426 kts | 281° |
| 2026-05-08 10:40 | 55.80240 | 47.05708 | 31778 ft | 427 kts | 281° |
| 2026-05-08 10:41 | 55.81345 | 46.95582 | 31857 ft | 403 kts | 281° |
| 2026-05-08 10:41 | 55.82390 | 46.85902 | 31865 ft | 396 kts | 281° |
| 2026-05-08 10:42 | 55.83423 | 46.76291 | 31867 ft | 395 kts | 281° |
| 2026-05-08 10:42 | 55.84442 | 46.66689 | 31865 ft | 395 kts | 281° |
| 2026-05-08 10:43 | 55.85455 | 46.57120 | 31867 ft | 391 kts | 280° |
| 2026-05-08 10:43 | 55.86456 | 46.47602 | 31514 ft | 391 kts | 280° |
| 2026-05-08 10:43 | 55.86949 | 46.42899 | 31207 ft | 386 kts | 280° |
| 2026-05-08 10:44 | 55.87441 | 46.38165 | 30732 ft | 382 kts | 280° |
| 2026-05-08 10:44 | 55.87919 | 46.33538 | 30250 ft | 378 kts | 280° |
| 2026-05-08 10:44 | 55.88392 | 46.28949 | 29746 ft | 375 kts | 280° |
| 2026-05-08 10:44 | 55.88858 | 46.24406 | 29262 ft | 370 kts | 280° |
| 2026-05-08 10:45 | 55.89309 | 46.19977 | 28811 ft | 366 kts | 280° |
| 2026-05-08 10:45 | 55.89760 | 46.15546 | 28377 ft | 363 kts | 280° |
| 2026-05-08 10:45 | 55.90214 | 46.11087 | 27944 ft | 366 kts | 280° |
| 2026-05-08 10:45 | 55.90667 | 46.06624 | 27518 ft | 365 kts | 280° |
| 2026-05-08 10:46 | 55.91115 | 46.02187 | 27209 ft | 364 kts | 279° |
| 2026-05-08 10:46 | 55.91559 | 45.97756 | 26955 ft | 362 kts | 279° |
| 2026-05-08 10:46 | 55.91995 | 45.93378 | 26699 ft | 360 kts | 279° |
| 2026-05-08 10:46 | 55.92428 | 45.88995 | 26443 ft | 358 kts | 279° |
| 2026-05-08 10:47 | 55.92857 | 45.84641 | 26203 ft | 356 kts | 279° |
| 2026-05-08 10:47 | 55.93287 | 45.80292 | 25949 ft | 355 kts | 279° |
| 2026-05-08 10:47 | 55.93716 | 45.75964 | 25703 ft | 354 kts | 279° |
| 2026-05-08 10:47 | 55.94143 | 45.71656 | 25460 ft | 350 kts | 279° |
| 2026-05-08 10:48 | 55.94560 | 45.67420 | 25097 ft | 345 kts | 279° |
| 2026-05-08 10:48 | 55.94968 | 45.63230 | 24680 ft | 341 kts | 279° |
| 2026-05-08 10:48 | 55.95367 | 45.59081 | 24261 ft | 338 kts | 279° |
| 2026-05-08 10:48 | 55.95759 | 45.54975 | 23850 ft | 335 kts | 278° |
| 2026-05-08 10:49 | 55.96147 | 45.50897 | 23410 ft | 332 kts | 278° |
| 2026-05-08 10:49 | 55.96533 | 45.46849 | 22942 ft | 329 kts | 278° |
| 2026-05-08 10:49 | 55.96914 | 45.42848 | 22513 ft | 325 kts | 278° |
| 2026-05-08 10:49 | 55.97290 | 45.38888 | 22098 ft | 322 kts | 278° |
| 2026-05-08 10:50 | 55.97663 | 45.34973 | 21679 ft | 318 kts | 278° |
| 2026-05-08 10:50 | 55.98033 | 45.31090 | 21290 ft | 316 kts | 278° |
| 2026-05-08 10:50 | 55.98396 | 45.27236 | 20879 ft | 314 kts | 278° |
| 2026-05-08 10:50 | 55.98758 | 45.23413 | 20464 ft | 311 kts | 278° |
| 2026-05-08 10:51 | 55.99119 | 45.19564 | 20048 ft | 309 kts | 278° |
| 2026-05-08 10:51 | 55.99470 | 45.15792 | 19656 ft | 307 kts | 277° |
| 2026-05-08 10:51 | 55.99816 | 45.12041 | 19260 ft | 305 kts | 277° |
| 2026-05-08 10:51 | 56.00160 | 45.08303 | 18846 ft | 305 kts | 277° |
| 2026-05-08 10:52 | 56.00503 | 45.04566 | 18415 ft | 305 kts | 277° |
| 2026-05-08 10:52 | 56.00743 | 45.00811 | 17949 ft | 304 kts | 271° |
| 2026-05-08 10:52 | 56.00840 | 44.97042 | 17501 ft | 303 kts | 271° |
| 2026-05-08 10:52 | 56.00940 | 44.93298 | 17084 ft | 301 kts | 271° |
| 2026-05-08 10:53 | 56.01042 | 44.89573 | 16666 ft | 300 kts | 271° |
| 2026-05-08 10:53 | 56.01144 | 44.85859 | 16248 ft | 298 kts | 271° |
| 2026-05-08 10:53 | 56.01243 | 44.82161 | 15831 ft | 298 kts | 271° |
| 2026-05-08 10:53 | 56.01339 | 44.78474 | 15425 ft | 297 kts | 271° |
| 2026-05-08 10:54 | 56.01433 | 44.74801 | 15025 ft | 296 kts | 271° |
| 2026-05-08 10:54 | 56.01527 | 44.71134 | 14611 ft | 295 kts | 271° |
| 2026-05-08 10:54 | 56.01619 | 44.67481 | 14203 ft | 294 kts | 271° |
| 2026-05-08 10:54 | 56.01708 | 44.63825 | 13789 ft | 294 kts | 271° |
| 2026-05-08 10:55 | 56.01792 | 44.60185 | 13359 ft | 293 kts | 270° |
| 2026-05-08 10:55 | 56.01876 | 44.56554 | 12932 ft | 291 kts | 271° |
| 2026-05-08 10:55 | 56.01958 | 44.52957 | 12522 ft | 289 kts | 271° |
| 2026-05-08 10:55 | 56.02042 | 44.49384 | 12112 ft | 287 kts | 271° |
| 2026-05-08 10:56 | 56.02126 | 44.45836 | 11694 ft | 285 kts | 271° |
| 2026-05-08 10:56 | 56.02209 | 44.42307 | 11282 ft | 283 kts | 271° |
| 2026-05-08 10:56 | 56.02290 | 44.38799 | 10865 ft | 282 kts | 271° |
| 2026-05-08 10:56 | 56.02369 | 44.35305 | 10446 ft | 280 kts | 271° |
| 2026-05-08 10:57 | 56.02445 | 44.31828 | 10040 ft | 279 kts | 270° |
| 2026-05-08 10:57 | 56.02517 | 44.28436 | 9905 ft | 267 kts | 271° |
| 2026-05-08 10:57 | 56.02654 | 44.21944 | 9200 ft | 261 kts | 271° |
| 2026-05-08 10:58 | 56.02721 | 44.18742 | 8868 ft | 256 kts | 271° |
| 2026-05-08 10:58 | 56.02785 | 44.15568 | 8456 ft | 255 kts | 271° |
| 2026-05-08 10:58 | 56.02849 | 44.12408 | 8023 ft | 254 kts | 271° |
| 2026-05-08 10:58 | 56.02913 | 44.09263 | 7584 ft | 251 kts | 271° |
| 2026-05-08 10:59 | 56.02975 | 44.06177 | 7069 ft | 244 kts | 271° |
| 2026-05-08 10:59 | 56.03036 | 44.03136 | 6825 ft | 246 kts | 271° |
| 2026-05-08 10:59 | 56.03095 | 44.00076 | 6078 ft | 247 kts | 272° |
| 2026-05-08 10:59 | 56.03152 | 43.97002 | 5282 ft | 247 kts | 272° |
| 2026-05-08 11:00 | 56.03208 | 43.93930 | 4587 ft | 245 kts | 272° |
| 2026-05-08 11:00 | 56.03260 | 43.91006 | 4358 ft | 224 kts | 272° |
| 2026-05-08 11:00 | 56.03382 | 43.88360 | 4251 ft | 206 kts | 281° |
| 2026-05-08 11:00 | 56.03648 | 43.85914 | 4152 ft | 196 kts | 280° |
| 2026-05-08 11:01 | 56.03898 | 43.83525 | 4069 ft | 196 kts | 281° |
| 2026-05-08 11:01 | 56.04150 | 43.81117 | 3973 ft | 198 kts | 281° |
| 2026-05-08 11:01 | 56.04409 | 43.78686 | 3842 ft | 201 kts | 283° |
| 2026-05-08 11:01 | 56.04721 | 43.77103 | 3518 ft | 207 kts | 297° |
| 2026-05-08 11:02 | 56.05608 | 43.75066 | 3280 ft | 204 kts | 318° |
| 2026-05-08 11:02 | 56.08148 | 43.73337 | 2922 ft | 194 kts | 355° |
| 2026-05-08 11:02 | 56.09466 | 43.73656 | 2669 ft | 190 kts | 7° |
| 2026-05-08 11:03 | 56.10730 | 43.74118 | 2415 ft | 179 kts | 7° |
| 2026-05-08 11:03 | 56.11899 | 43.74545 | 2188 ft | 165 kts | 6° |
| 2026-05-08 11:03 | 56.12982 | 43.74939 | 1971 ft | 152 kts | 7° |
| 2026-05-08 11:03 | 56.13962 | 43.75296 | 1791 ft | 138 kts | 6° |
| 2026-05-08 11:04 | 56.14880 | 43.75628 | 1605 ft | 133 kts | 5° |
| 2026-05-08 11:04 | 56.15793 | 43.75959 | 1427 ft | 134 kts | 6° |
| 2026-05-08 11:04 | 56.16704 | 43.76302 | 1257 ft | 134 kts | 6° |
| 2026-05-08 11:04 | 56.17602 | 43.76637 | 1022 ft | 131 kts | 7° |
| 2026-05-08 11:05 | 56.18497 | 43.76935 | 902 ft | 130 kts | 6° |
| 2026-05-08 11:05 | 56.19393 | 43.77267 | 746 ft | 133 kts | 7° |
| 2026-05-08 11:05 | 56.20302 | 43.77590 | 569 ft | 132 kts | 9° |
| 2026-05-08 11:05 | 56.21217 | 43.77925 | 364 ft | 127 kts | 10° |
| 2026-05-08 11:06 | 56.22122 | 43.78258 | 269 ft | 111 kts | 11° |
| 2026-05-08 11:06 | 56.22716 | 43.78473 | 266 ft | 70 kts | 11° |
| 2026-05-08 11:06 | 56.23160 | 43.78646 | 269 ft | 58 kts | 12° |
| 2026-05-08 11:06 | 56.23541 | 43.78775 | 263 ft | 51 kts | 11° |
| 2026-05-08 11:07 | 56.23877 | 43.78902 | 267 ft | 48 kts | 11° |
| 2026-05-08 11:07 | 56.24106 | 43.79020 | 268 ft | 21 kts | 55° |
| 2026-05-08 11:07 | 56.24073 | 43.79209 | 266 ft | 0 kts | 135° |
| 2026-05-08 11:08 | 56.24013 | 43.79264 | 266 ft | 20 kts | 168° |
| 2026-05-08 11:08 | 56.23876 | 43.79261 | 266 ft | 19 kts | 181° |
| 2026-05-08 11:08 | 56.23749 | 43.79253 | 266 ft | 18 kts | 182° |
| 2026-05-08 11:08 | 56.23631 | 43.79243 | 266 ft | 16 kts | 183° |
| 2026-05-08 11:09 | 56.23520 | 43.79233 | 266 ft | 15 kts | 183° |
| 2026-05-08 11:09 | 56.23419 | 43.79203 | 266 ft | 14 kts | 192° |
| 2026-05-08 11:09 | 56.23324 | 43.79167 | 266 ft | 14 kts | 192° |
| 2026-05-08 11:09 | 56.23235 | 43.79134 | 266 ft | 13 kts | 192° |
| 2026-05-08 11:10 | 56.23152 | 43.79104 | 266 ft | 12 kts | 191° |
| 2026-05-08 11:10 | 56.23075 | 43.79075 | 266 ft | 11 kts | 192° |
| 2026-05-08 11:10 | 56.23000 | 43.79048 | 266 ft | 11 kts | 191° |
| 2026-05-08 11:10 | 56.22912 | 43.79016 | 266 ft | 15 kts | 191° |
| 2026-05-08 11:11 | 56.22816 | 43.78980 | 266 ft | 14 kts | 192° |
| 2026-05-08 11:11 | 56.22727 | 43.78947 | 266 ft | 13 kts | 191° |
| 2026-05-08 11:11 | 56.22643 | 43.78917 | 266 ft | 12 kts | 191° |
| 2026-05-08 11:11 | 56.22565 | 43.78889 | 266 ft | 11 kts | 191° |
| 2026-05-08 11:12 | 56.22492 | 43.78862 | 266 ft | 10 kts | 192° |
| 2026-05-08 11:12 | 56.22427 | 43.78824 | 266 ft | 10 kts | 200° |
| 2026-05-08 11:12 | 56.22366 | 43.78791 | 266 ft | 9 kts | 192° |
| 2026-05-08 11:12 | 56.22309 | 43.78770 | 266 ft | 8 kts | 191° |
| 2026-05-08 11:13 | 56.22244 | 43.78748 | 266 ft | 10 kts | 191° |
| 2026-05-08 11:13 | 56.22175 | 43.78722 | 266 ft | 10 kts | 191° |
| 2026-05-08 11:13 | 56.22112 | 43.78719 | 266 ft | 9 kts | 160° |
| 2026-05-08 11:13 | 56.22058 | 43.78759 | 266 ft | 8 kts | 158° |
| 2026-05-08 11:14 | 56.22025 | 43.78827 | 266 ft | 7 kts | 106° |
| 2026-05-08 11:14 | 56.22023 | 43.78848 | 266 ft | 0 kts | 98° |